Time;durP1;ratioP1;P1;durP2;ratioP2;P2;SDS_P1;SDS_P2;PMS_P1;PMS_P2;Temp;Humidity;BMP_temperature;BMP_pressure;BME280_temperature;BME280_humidity;BME280_pressure;Samples;Min_cycle;Max_cycle;Signal;HPM_P1;HPM_P2
2022/10/14 00:01:18;;;;;;;27.60;21.45;;;;;;;12.48;100.00;101337.22;5025090;28;20038;-70
2022/10/14 00:03:44;;;;;;;25.67;21.88;;;;;;;12.47;100.00;101336.38;5032102;28;20029;-70
2022/10/14 00:06:15;;;;;;;28.33;20.92;;;;;;;12.47;100.00;101338.25;5050553;28;20033;-70
2022/10/14 00:08:40;;;;;;;27.45;21.40;;;;;;;12.48;100.00;101342.63;5034631;28;20124;-70
2022/10/14 00:11:11;;;;;;;25.33;20.13;;;;;;;12.45;100.00;101341.19;5017748;28;20495;-69
2022/10/14 00:13:37;;;;;;;29.70;20.70;;;;;;;12.47;100.00;101341.81;5023322;28;20060;-70
2022/10/14 00:16:04;;;;;;;28.50;20.90;;;;;;;12.47;100.00;101339.09;5015121;28;20105;-70
2022/10/14 00:18:29;;;;;;;30.92;21.75;;;;;;;12.44;100.00;101336.00;5014343;28;20475;-70
2022/10/14 00:20:59;;;;;;;30.50;21.08;;;;;;;12.48;100.00;101350.78;5029229;28;20025;-70
2022/10/14 00:23:25;;;;;;;24.80;21.23;;;;;;;12.47;100.00;101344.53;5015357;28;20044;-70
2022/10/14 00:25:50;;;;;;;27.13;20.58;;;;;;;12.45;100.00;101337.66;5013905;28;20021;-69
2022/10/14 00:28:15;;;;;;;28.02;20.70;;;;;;;12.47;100.00;101340.97;5031220;28;20025;-70
2022/10/14 00:30:41;;;;;;;25.10;21.08;;;;;;;12.47;100.00;101339.09;5035154;28;20036;-70
2022/10/14 00:33:06;;;;;;;25.30;20.55;;;;;;;12.47;100.00;101340.97;5029561;28;20029;-70
2022/10/14 00:35:31;;;;;;;25.48;21.05;;;;;;;12.48;100.00;101327.16;5015289;28;20026;-70
2022/10/14 00:37:58;;;;;;;25.00;20.33;;;;;;;12.48;100.00;101327.16;5027206;28;20025;-69
2022/10/14 00:40:26;;;;;;;27.10;20.80;;;;;;;12.48;100.00;101327.16;5034830;28;20086;-70
2022/10/14 00:42:52;;;;;;;26.98;21.13;;;;;;;12.47;100.00;101322.81;5034690;28;20025;-70
2022/10/14 00:45:22;;;;;;;27.88;21.27;;;;;;;12.48;100.00;101316.31;5034843;28;20108;-70
2022/10/14 00:47:50;;;;;;;26.17;21.60;;;;;;;12.47;100.00;101320.09;5021671;28;20057;-70
2022/10/14 00:50:19;;;;;;;30.60;22.55;;;;;;;12.50;100.00;101318.78;5029592;28;20377;-70
2022/10/14 00:52:45;;;;;;;30.13;21.98;;;;;;;12.48;100.00;101305.44;5013632;28;20045;-69
2022/10/14 00:55:20;;;;;;;32.70;22.83;;;;;;;12.49;100.00;101307.13;5019668;28;20059;-69
2022/10/14 00:57:45;;;;;;;35.33;23.55;;;;;;;12.49;100.00;101309.84;5028906;28;20029;-70
2022/10/14 01:00:17;;;;;;;29.00;21.98;;;;;;;12.47;100.00;101302.97;5014539;28;20025;-69
2022/10/14 01:02:42;;;;;;;33.03;22.83;;;;;;;12.48;100.00;101302.75;5012343;28;20083;-70
2022/10/14 01:05:10;;;;;;;30.05;22.63;;;;;;;12.47;100.00;101303.81;5013165;28;20026;-70
2022/10/14 01:08:12;;;;;;;31.05;22.70;;;;;;;12.50;100.00;101297.94;5038989;28;20022;-70
2022/10/14 01:10:42;;;;;;;30.27;22.33;;;;;;;12.49;100.00;101298.16;5028650;28;20350;-70
2022/10/14 01:13:26;;;;;;;30.75;22.05;;;;;;;12.49;100.00;101293.53;5014110;28;20121;-70
2022/10/14 01:15:59;;;;;;;31.10;23.73;;;;;;;12.48;100.00;101297.31;5013370;28;20072;-70
2022/10/14 01:18:32;;;;;;;29.58;22.63;;;;;;;12.47;100.00;101286.69;5030134;28;20021;-70
2022/10/14 01:21:03;;;;;;;29.33;23.05;;;;;;;12.46;100.00;101285.84;5031851;28;20700;-69
2022/10/14 01:24:01;;;;;;;29.05;23.08;;;;;;;12.47;100.00;101282.09;5025674;28;20441;-69
2022/10/14 01:26:54;;;;;;;32.72;23.73;;;;;;;12.48;100.00;101269.34;5013788;28;20389;-70
2022/10/14 01:29:44;;;;;;;33.83;24.05;;;;;;;12.45;100.00;101267.91;5034018;28;20373;-69
2022/10/14 01:32:13;;;;;;;31.27;24.35;;;;;;;12.45;100.00;101256.22;5033325;28;20094;-70
2022/10/14 01:34:49;;;;;;;27.73;23.33;;;;;;;12.43;100.00;101259.16;5033741;28;20072;-70
2022/10/14 01:37:18;;;;;;;30.83;23.45;;;;;;;12.43;100.00;101259.16;5032377;28;20057;-70
2022/10/14 01:39:49;;;;;;;35.33;23.27;;;;;;;12.44;100.00;101254.56;5033772;28;20017;-70
2022/10/14 01:42:35;;;;;;;;;;;;;;;12.51;100.00;101245.28;5034310;28;20037;-70
2022/10/14 01:45:07;;;;;;;32.40;24.38;;;;;;;12.43;100.00;101234.75;5031742;28;20027;-70
2022/10/14 01:47:34;;;;;;;33.63;23.90;;;;;;;12.44;100.00;101239.13;5016479;28;20034;-70
2022/10/14 01:50:11;;;;;;;30.65;23.50;;;;;;;12.43;100.00;101237.47;5013258;28;20033;-69
2022/10/14 01:52:43;;;;;;;32.80;24.08;;;;;;;12.42;100.00;101235.78;5013854;28;20113;-69
2022/10/14 01:55:15;;;;;;;34.28;25.13;;;;;;;12.43;100.00;101237.47;5012307;28;20026;-69
2022/10/14 01:57:42;;;;;;;33.45;24.25;;;;;;;12.44;100.00;101244.56;5030948;28;20052;-70
2022/10/14 02:00:10;;;;;;;35.13;25.15;;;;;;;12.45;100.00;101246.19;5032937;28;20021;-71
2022/10/14 02:02:36;;;;;;;32.78;23.83;;;;;;;12.41;100.00;101242.28;5030921;28;20021;-70
2022/10/14 02:05:07;;;;;;;32.42;24.13;;;;;;;12.42;100.00;101238.50;5033162;28;20540;-70
2022/10/14 02:07:43;;;;;;;30.65;24.27;;;;;;;12.42;100.00;101235.78;5015355;28;20038;-70
2022/10/14 02:10:20;;;;;;;35.13;24.58;;;;;;;12.43;100.00;101231.22;5013379;28;20080;-69
2022/10/14 02:13:10;;;;;;;34.35;23.65;;;;;;;12.44;100.00;101233.69;5013562;28;20033;-70
2022/10/14 02:16:03;;;;;;;32.20;23.95;;;;;;;12.44;100.00;101232.84;5013057;28;20100;-70
2022/10/14 02:18:34;;;;;;;31.55;23.75;;;;;;;12.42;100.00;101230.38;5013474;28;20036;-71
2022/10/14 02:21:11;;;;;;;30.75;23.52;;;;;;;12.44;100.00;101224.72;5011805;28;20030;-69
2022/10/14 02:23:45;;;;;;;31.73;23.65;;;;;;;12.44;100.00;101222.84;5013283;28;20046;-70
2022/10/14 02:26:11;;;;;;;35.60;24.27;;;;;;;12.42;100.00;101214.06;5011793;28;20430;-70
2022/10/14 02:28:40;;;;;;;31.67;23.48;;;;;;;12.43;100.00;101214.94;5018330;28;20040;-70
2022/10/14 02:31:11;;;;;;;36.00;24.55;;;;;;;12.43;100.00;101218.47;5012904;28;20091;-69
2022/10/14 02:33:40;;;;;;;33.47;24.05;;;;;;;12.40;100.00;101211.59;5013156;28;20117;-70
2022/10/14 02:36:08;;;;;;;33.80;23.98;;;;;;;12.44;100.00;101211.97;5012194;28;20065;-70
2022/10/14 02:38:34;;;;;;;37.03;24.75;;;;;;;12.43;100.00;101217.63;5013059;28;20034;-70
2022/10/14 02:41:04;;;;;;;36.25;25.08;;;;;;;12.45;100.00;101219.03;5011434;28;20044;-69
2022/10/14 02:43:29;;;;;;;39.05;24.75;;;;;;;12.45;100.00;101219.03;5012722;28;20371;-70
2022/10/14 02:46:01;;;;;;;37.88;25.00;;;;;;;12.46;100.00;101218.00;5012139;28;20044;-70
2022/10/14 02:48:26;;;;;;;39.30;23.48;;;;;;;12.47;100.00;101211.53;5011539;28;20068;-70
2022/10/14 02:50:51;;;;;;;37.65;23.35;;;;;;;12.48;100.00;101204.19;5012695;28;20029;-70
2022/10/14 02:53:17;;;;;;;37.00;23.02;;;;;;;12.47;100.00;101210.69;5011415;28;20115;-70
2022/10/14 02:55:42;;;;;;;40.58;24.75;;;;;;;12.47;100.00;101203.38;5011112;28;20124;-69
2022/10/14 02:58:08;;;;;;;43.72;23.83;;;;;;;12.48;100.00;101196.88;5012935;28;20029;-70
2022/10/14 03:00:33;;;;;;;42.50;23.38;;;;;;;12.46;100.00;101193.56;5010365;28;20022;-69
2022/10/14 03:02:58;;;;;;;38.75;24.17;;;;;;;12.46;100.00;101190.84;5012446;28;20034;-69
2022/10/14 03:05:24;;;;;;;38.85;23.58;;;;;;;12.48;100.00;101188.72;5012891;28;20050;-70
2022/10/14 03:07:49;;;;;;;40.25;23.08;;;;;;;12.47;100.00;101192.53;5029807;28;20112;-70
2022/10/14 03:10:15;;;;;;;37.38;21.20;;;;;;;12.50;100.00;101188.50;5032230;28;20022;-70
2022/10/14 03:12:40;;;;;;;34.90;21.92;;;;;;;12.50;100.00;101183.91;5012574;28;20065;-70
2022/10/14 03:15:06;;;;;;;36.17;21.45;;;;;;;12.51;100.00;101184.75;5012254;28;20061;-70
2022/10/14 03:17:31;;;;;;;35.28;22.48;;;;;;;12.50;100.00;101183.06;5024984;28;20025;-70
2022/10/14 03:19:58;;;;;;;37.88;22.23;;;;;;;12.51;100.00;101179.31;5032009;28;20072;-70
2022/10/14 03:22:23;;;;;;;38.28;23.23;;;;;;;12.50;100.00;101178.50;5031003;28;20032;-69
2022/10/14 03:24:49;;;;;;;34.50;21.85;;;;;;;12.51;100.00;101174.69;5030862;28;20045;-70
2022/10/14 03:27:14;;;;;;;37.72;23.10;;;;;;;12.53;100.00;101174.47;5030357;28;20049;-70
2022/10/14 03:29:39;;;;;;;35.72;21.77;;;;;;;12.52;100.00;101170.94;5032320;28;20108;-70
2022/10/14 03:32:04;;;;;;;35.50;22.42;;;;;;;12.52;100.00;101173.66;5030428;28;20044;-70
2022/10/14 03:34:31;;;;;;;35.08;21.70;;;;;;;12.53;100.00;101169.88;5029956;28;20137;-70
2022/10/14 03:36:56;;;;;;;34.65;22.27;;;;;;;12.56;100.00;101168.56;5030082;28;20104;-70
2022/10/14 03:39:21;;;;;;;34.20;20.67;;;;;;;12.52;100.00;101157.38;5034372;28;20032;-70
2022/10/14 03:41:47;;;;;;;33.67;20.88;;;;;;;12.54;100.00;101160.66;5036089;28;20021;-70
2022/10/14 03:44:12;;;;;;;28.63;20.02;;;;;;;12.54;100.00;101157.94;5035787;28;20028;-70
2022/10/14 03:46:38;;;;;;;29.95;19.92;;;;;;;12.54;100.00;101152.53;5034617;28;20462;-70
2022/10/14 03:49:03;;;;;;;32.13;20.92;;;;;;;12.52;100.00;101149.22;5035679;28;20023;-70
2022/10/14 03:51:28;;;;;;;33.30;20.00;;;;;;;12.56;100.00;101147.72;5035900;28;20022;-70
2022/10/14 03:53:53;;;;;;;30.40;20.10;;;;;;;12.57;100.00;101146.63;5034521;28;20052;-70
2022/10/14 03:56:19;;;;;;;35.08;19.80;;;;;;;12.57;100.00;101146.63;5030882;28;20041;-70
2022/10/14 03:58:44;;;;;;;28.10;18.13;;;;;;;12.59;100.00;101143.69;5036260;28;20029;-70
2022/10/14 04:01:09;;;;;;;32.50;19.48;;;;;;;12.58;100.00;101148.28;5033054;28;20025;-70
2022/10/14 04:03:35;;;;;;;32.28;18.45;;;;;;;12.56;100.00;101139.56;5035738;28;20026;-70
2022/10/14 04:06:00;;;;;;;25.92;18.95;;;;;;;12.58;100.00;101139.34;5034850;28;20108;-71
2022/10/14 04:08:25;;;;;;;25.00;18.05;;;;;;;12.59;100.00;101136.38;5034950;28;20475;-70
2022/10/14 04:10:52;;;;;;;24.08;17.55;;;;;;;12.58;100.00;101134.72;5035244;28;20087;-70
2022/10/14 04:13:17;;;;;;;25.50;18.65;;;;;;;12.58;100.00;101134.72;5035138;28;20033;-69
2022/10/14 04:15:43;;;;;;;27.58;18.13;;;;;;;12.60;100.00;101134.50;5031424;28;20037;-70
2022/10/14 04:18:08;;;;;;;22.83;17.50;;;;;;;12.60;100.00;101134.50;5014406;28;20436;-70
2022/10/14 04:20:33;;;;;;;27.08;17.40;;;;;;;12.58;100.00;101133.91;5015402;28;20030;-70
2022/10/14 04:22:59;;;;;;;24.27;16.70;;;;;;;12.59;100.00;101133.66;5013981;28;20033;-70
2022/10/14 04:25:24;;;;;;;27.20;17.05;;;;;;;12.60;100.00;101134.50;5015243;28;20470;-70
2022/10/14 04:27:50;;;;;;;21.92;16.10;;;;;;;12.60;100.00;101131.78;5014945;28;20596;-70
2022/10/14 04:30:15;;;;;;;22.92;16.70;;;;;;;12.59;100.00;101121.97;5015165;28;20021;-69
2022/10/14 04:32:40;;;;;;;21.20;16.40;;;;;;;12.59;100.00;101121.97;5015571;28;20057;-70
2022/10/14 04:35:06;;;;;;;21.00;16.25;;;;;;;12.59;100.00;101120.09;5013783;28;20432;-70
2022/10/14 04:37:31;;;;;;;22.90;15.68;;;;;;;12.61;100.00;101119.03;5025887;28;20080;-70
2022/10/14 04:39:57;;;;;;;20.58;16.08;;;;;;;12.61;100.00;101113.63;5017222;28;20029;-71
2022/10/14 04:42:22;;;;;;;22.60;15.55;;;;;;;12.60;100.00;101110.06;5030412;28;20107;-70
2022/10/14 04:44:47;;;;;;;21.85;15.80;;;;;;;12.62;100.00;101115.25;5015175;28;20025;-70
2022/10/14 04:47:12;;;;;;;21.48;15.52;;;;;;;12.62;100.00;101115.25;5022656;28;20018;-70
2022/10/14 04:49:38;;;;;;;21.42;14.75;;;;;;;12.62;100.00;101112.53;5033701;28;20041;-70
2022/10/14 04:52:03;;;;;;;18.35;14.15;;;;;;;12.62;100.00;101112.53;5034610;28;20334;-71
2022/10/14 04:54:29;;;;;;;19.55;14.55;;;;;;;12.62;100.00;101107.09;5034761;28;20049;-70
2022/10/14 04:56:54;;;;;;;20.90;14.90;;;;;;;12.61;100.00;101109.00;5033569;28;20057;-70
2022/10/14 04:59:20;;;;;;;19.17;13.82;;;;;;;12.61;100.00;101100.84;5033033;28;20524;-70
2022/10/14 05:01:45;;;;;;;18.42;14.13;;;;;;;12.61;100.00;101098.16;5012383;28;20437;-71
2022/10/14 05:04:10;;;;;;;18.90;13.38;;;;;;;12.63;100.00;101104.16;5014318;28;20017;-70
2022/10/14 05:06:36;;;;;;;18.45;13.40;;;;;;;12.62;100.00;101104.41;5017001;28;20017;-70
2022/10/14 05:09:04;;;;;;;17.70;13.18;;;;;;;12.62;100.00;101104.41;5035774;28;20409;-70
2022/10/14 05:11:29;;;;;;;20.30;13.30;;;;;;;12.62;100.00;101097.09;5034583;28;20028;-70
2022/10/14 05:13:54;;;;;;;19.38;13.40;;;;;;;12.64;100.00;101089.53;5033047;28;20029;-71
2022/10/14 05:16:19;;;;;;;16.92;12.77;;;;;;;12.63;100.00;101085.16;5032788;28;20452;-69
2022/10/14 05:18:45;;;;;;;18.10;12.75;;;;;;;12.65;100.00;101082.19;5028274;28;20088;-70
2022/10/14 05:21:10;;;;;;;14.90;11.65;;;;;;;12.65;100.00;101082.19;5034223;28;20025;-70
2022/10/14 05:23:35;;;;;;;17.77;11.90;;;;;;;12.64;100.00;101083.28;5032600;28;20524;-71
2022/10/14 05:26:01;;;;;;;17.17;11.77;;;;;;;12.65;100.00;101077.63;5033853;28;20029;-70
2022/10/14 05:28:26;;;;;;;13.63;11.50;;;;;;;12.65;100.00;101083.06;5030184;28;20117;-70
2022/10/14 05:30:51;;;;;;;15.00;10.95;;;;;;;12.66;100.00;101070.28;5033123;28;20075;-70
2022/10/14 05:33:17;;;;;;;13.95;11.50;;;;;;;12.67;100.00;101059.19;5033500;28;20480;-70
2022/10/14 05:35:43;;;;;;;14.52;10.85;;;;;;;12.67;100.00;101061.09;5033716;28;20105;-70
2022/10/14 05:38:08;;;;;;;12.10;10.10;;;;;;;12.66;100.00;101059.44;5030543;28;20033;-70
2022/10/14 05:40:34;;;;;;;12.25;10.55;;;;;;;12.65;100.00;101053.19;5033494;28;20025;-70
2022/10/14 05:42:59;;;;;;;14.80;10.23;;;;;;;12.67;100.00;101061.91;5033797;28;20063;-70
2022/10/14 05:45:25;;;;;;;14.85;10.32;;;;;;;12.65;100.00;101045.03;5032223;28;20026;-70
2022/10/14 05:47:51;;;;;;;12.25;9.52;;;;;;;12.66;100.00;101048.56;5028783;28;20025;-70
2022/10/14 05:50:16;;;;;;;11.93;9.63;;;;;;;12.66;100.00;101046.69;5033483;28;20476;-70
2022/10/14 05:52:41;;;;;;;12.90;10.18;;;;;;;12.67;100.00;101044.81;5032340;28;20036;-70
2022/10/14 05:55:07;;;;;;;12.43;9.88;;;;;;;12.67;100.00;101036.66;5032241;28;20025;-70
2022/10/14 05:57:33;;;;;;;11.15;9.45;;;;;;;12.67;100.00;101036.66;5032413;28;20028;-69
2022/10/14 05:59:59;;;;;;;13.57;9.63;;;;;;;12.65;100.00;101031.47;5026627;28;20028;-71
2022/10/14 06:02:25;;;;;;;14.63;9.93;;;;;;;12.66;100.00;101041.25;5011724;28;20026;-70
2022/10/14 06:04:51;;;;;;;13.77;9.93;;;;;;;12.67;100.00;101042.09;5013618;28;20164;-70
2022/10/14 06:07:16;;;;;;;13.60;9.82;;;;;;;12.67;100.00;101042.09;5013145;28;20373;-70
2022/10/14 06:09:41;;;;;;;11.55;9.90;;;;;;;12.67;100.00;101034.75;5013867;28;20037;-69
2022/10/14 06:12:07;;;;;;;10.98;9.75;;;;;;;12.68;100.00;101030.16;5029910;28;20033;-72
2022/10/14 06:14:32;;;;;;;12.98;9.30;;;;;;;12.68;100.00;101028.28;5033078;28;20033;-70
2022/10/14 06:16:57;;;;;;;14.80;10.07;;;;;;;12.68;100.00;101024.72;5032925;28;20068;-70
2022/10/14 06:19:23;;;;;;;13.02;9.55;;;;;;;12.67;100.00;101023.91;5033118;28;20071;-70
2022/10/14 06:21:48;;;;;;;11.52;9.50;;;;;;;12.68;100.00;101022.00;5027858;28;20029;-72
2022/10/14 06:24:13;;;;;;;12.70;9.50;;;;;;;12.68;100.00;101020.13;5023435;28;20061;-70
2022/10/14 06:26:39;;;;;;;12.45;9.52;;;;;;;12.69;100.00;101023.66;5013300;28;20034;-71
2022/10/14 06:29:04;;;;;;;11.80;9.90;;;;;;;12.69;100.00;101023.66;5011977;28;20072;-71
2022/10/14 06:31:30;;;;;;;13.77;10.13;;;;;;;12.68;100.00;101024.72;5023281;28;20035;-71
2022/10/14 06:33:55;;;;;;;11.55;9.95;;;;;;;12.71;100.00;101024.25;5033008;28;20030;-73
2022/10/14 06:36:20;;;;;;;12.23;9.40;;;;;;;12.71;100.00;101018.81;5032449;28;20037;-73
2022/10/14 06:38:46;;;;;;;14.95;9.88;;;;;;;12.71;100.00;101021.53;5030388;28;20449;-72
2022/10/14 06:41:11;;;;;;;11.57;9.45;;;;;;;12.71;100.00;101016.09;5025468;28;20033;-73
2022/10/14 06:43:36;;;;;;;13.32;9.35;;;;;;;12.72;100.00;101012.34;5032094;28;20022;-72
2022/10/14 06:46:03;;;;;;;11.57;9.80;;;;;;;12.73;100.00;101014.00;5032332;28;20025;-73
2022/10/14 06:48:28;;;;;;;13.00;10.27;;;;;;;12.74;100.00;101012.91;5031989;28;20018;-73
2022/10/14 06:50:53;;;;;;;13.95;10.30;;;;;;;12.75;100.00;101011.88;5024204;28;20017;-72
2022/10/14 06:53:19;;;;;;;13.55;9.85;;;;;;;12.75;100.00;101006.44;5032361;28;20048;-72
2022/10/14 06:55:45;;;;;;;13.32;9.90;;;;;;;12.75;100.00;101009.97;5031967;28;20037;-71
2022/10/14 06:58:10;;;;;;;12.75;9.98;;;;;;;12.76;100.00;101014.34;5032092;28;20028;-74
2022/10/14 07:00:36;;;;;;;13.45;10.50;;;;;;;12.78;100.00;101005.97;5028527;28;20017;-73
2022/10/14 07:03:02;;;;;;;12.55;10.05;;;;;;;12.78;100.00;101000.53;5032025;28;20032;-75
2022/10/14 07:05:28;;;;;;;14.55;10.40;;;;;;;12.80;100.00;100998.41;5032177;28;20033;-73
2022/10/14 07:07:53;;;;;;;15.10;10.13;;;;;;;12.82;100.00;100995.44;5032475;28;20425;-71
2022/10/14 07:10:18;;;;;;;14.80;9.60;;;;;;;12.81;100.00;100989.19;5031038;28;20036;-71
2022/10/14 07:12:44;;;;;;;12.18;9.23;;;;;;;12.84;100.00;100982.47;5020490;28;20113;-72
2022/10/14 07:15:09;;;;;;;11.82;9.63;;;;;;;12.85;100.00;100989.56;5016088;28;20030;-72
2022/10/14 07:17:34;;;;;;;11.00;9.50;;;;;;;12.85;100.00;101001.25;5015333;28;20022;-73
2022/10/14 07:20:00;;;;;;;12.35;9.60;;;;;;;12.84;100.00;100999.59;5016074;28;20489;-74
2022/10/14 07:22:25;;;;;;;11.52;9.60;;;;;;;12.87;100.00;101001.81;5016116;28;20057;-74
2022/10/14 07:24:50;;;;;;;14.30;9.40;;;;;;;12.88;100.00;101002.66;5015031;28;20048;-74
2022/10/14 07:27:16;;;;;;;12.55;9.15;;;;;;;12.89;100.00;101007.88;5014499;28;20072;-74
2022/10/14 07:29:41;;;;;;;14.73;9.88;;;;;;;12.89;100.00;101009.72;5015077;28;20464;-74
2022/10/14 07:32:07;;;;;;;10.65;9.55;;;;;;;12.91;100.00;101011.16;5016461;28;20030;-73
2022/10/14 07:34:35;;;;;;;14.90;9.35;;;;;;;12.93;100.00;101014.47;5015448;28;20034;-72
2022/10/14 07:37:00;;;;;;;11.23;9.35;;;;;;;12.95;100.00;101016.94;5020135;28;20102;-73
2022/10/14 07:39:26;;;;;;;12.93;9.43;;;;;;;12.96;100.00;101017.78;5025041;28;20029;-73
2022/10/14 07:41:52;;;;;;;12.77;9.73;;;;;;;12.96;100.00;101009.63;5034534;28;20116;-71
2022/10/14 07:44:17;;;;;;;16.00;9.88;;;;;;;12.97;100.00;101005.84;5035686;28;20033;-72
2022/10/14 07:46:46;;;;;;;10.98;9.40;;;;;;;12.97;100.00;100997.69;5026393;28;20024;-71
2022/10/14 07:49:13;;;;;;;12.13;9.80;;;;;;;13.00;100.00;101008.06;5016176;28;20026;-70
2022/10/14 07:51:40;;;;;;;12.50;9.80;;;;;;;13.02;100.00;101004.06;5028684;28;20495;-70
2022/10/14 07:54:10;;;;;;;13.25;9.05;;;;;;;13.06;100.00;100997.09;5015613;28;20037;-72
2022/10/14 07:56:38;;;;;;;17.85;9.75;;;;;;;13.15;100.00;101000.28;5015863;28;20026;-70
2022/10/14 07:59:03;;;;;;;14.80;11.18;;;;;;;13.29;100.00;100993.50;5015891;28;20030;-72
2022/10/14 08:01:28;;;;;;;13.27;9.77;;;;;;;13.26;100.00;100991.28;5015974;28;20034;-71
2022/10/14 08:03:54;;;;;;;12.38;9.60;;;;;;;13.32;100.00;100994.13;5015640;28;20028;-72
2022/10/14 08:06:19;;;;;;;12.63;9.43;;;;;;;13.33;100.00;100990.31;5014312;28;20036;-73
2022/10/14 08:08:45;;;;;;;11.70;9.98;;;;;;;13.36;100.00;100995.28;5015817;28;20030;-73
2022/10/14 08:11:14;;;;;;;12.48;9.65;;;;;;;13.37;100.00;100980.66;5019320;28;20460;-72
2022/10/14 08:13:40;;;;;;;13.88;9.57;;;;;;;13.40;100.00;100993.75;5014748;28;20030;-72
2022/10/14 08:16:14;;;;;;;17.42;9.25;;;;;;;13.39;100.00;100992.94;5015638;28;20034;-73
2022/10/14 08:18:40;;;;;;;13.40;9.75;;;;;;;13.40;100.00;100988.31;5015457;28;20445;-72
2022/10/14 08:21:05;;;;;;;14.65;9.88;;;;;;;13.42;100.00;100983.47;5014862;28;20032;-71
2022/10/14 08:23:31;;;;;;;12.75;9.52;;;;;;;13.46;100.00;100976.47;5014000;28;20450;-70
2022/10/14 08:25:57;;;;;;;12.20;9.35;;;;;;;13.47;100.00;100973.53;5014133;28;20032;-72
2022/10/14 08:28:23;;;;;;;14.30;9.68;;;;;;;13.50;100.00;100974.09;5015169;28;20022;-73
2022/10/14 08:30:48;;;;;;;11.43;8.95;;;;;;;13.50;100.00;100977.66;5016384;28;20053;-71
2022/10/14 08:33:13;;;;;;;13.32;9.23;;;;;;;13.51;100.00;100981.19;5023448;28;20030;-70
2022/10/14 08:35:39;;;;;;;12.70;8.60;;;;;;;13.51;100.00;100982.00;5027069;28;20049;-68
2022/10/14 08:38:04;;;;;;;10.48;8.90;;;;;;;13.51;100.00;100982.00;5033138;28;20152;-69
2022/10/14 08:40:41;;;;;;;9.88;8.30;;;;;;;13.51;100.00;100983.91;5025057;28;20030;-69
2022/10/14 08:43:18;;;;;;;11.48;8.82;;;;;;;13.52;100.00;100982.84;5037264;28;20036;-70
2022/10/14 08:45:48;;;;;;;13.00;9.30;;;;;;;13.53;100.00;100982.63;5034601;28;20120;-70
2022/10/14 08:48:18;;;;;;;10.68;9.23;;;;;;;13.55;100.00;100975.03;5034749;28;20025;-69
2022/10/14 08:50:54;;;;;;;10.50;9.13;;;;;;;13.57;100.00;100981.06;5022323;28;20022;-70
2022/10/14 08:53:35;;;;;;;12.93;9.07;;;;;;;13.56;100.00;100979.41;5034562;28;20125;-71
2022/10/14 08:56:01;;;;;;;14.05;9.00;;;;;;;13.60;100.00;100974.31;5034472;28;20099;-72
2022/10/14 08:58:33;;;;;;;10.52;9.45;;;;;;;13.60;100.00;100977.88;5029908;28;20500;-70
2022/10/14 09:01:03;;;;;;;10.40;8.95;;;;;;;13.60;100.00;100977.88;5022717;28;20247;-70
2022/10/14 09:03:35;;;;;;;13.20;9.27;;;;;;;13.62;100.00;100980.34;5034161;28;20029;-70
2022/10/14 09:06:05;;;;;;;10.95;8.82;;;;;;;13.61;100.00;100979.50;5034228;28;20029;-70
2022/10/14 09:08:44;;;;;;;10.40;8.65;;;;;;;13.65;100.00;100982.56;5022452;28;20401;-70
2022/10/14 09:11:17;;;;;;;13.68;9.05;;;;;;;13.68;100.00;100967.66;5013390;28;20107;-70
2022/10/14 09:13:45;;;;;;;12.27;9.50;;;;;;;13.67;100.00;100964.13;5013181;28;20026;-70
2022/10/14 09:16:16;;;;;;;13.13;8.40;;;;;;;13.70;100.00;100969.06;5014565;28;20029;-70
2022/10/14 09:19:05;;;;;;;10.85;8.40;;;;;;;13.73;100.00;100965.03;5013320;28;20025;-71
2022/10/14 09:21:36;;;;;;;11.82;8.90;;;;;;;13.77;100.00;100963.50;5015388;28;20041;-71
2022/10/14 09:24:11;;;;;;;10.75;8.55;;;;;;;13.78;100.00;100959.69;5014075;28;20442;-71
2022/10/14 09:26:42;;;;;;;10.90;8.38;;;;;;;13.78;100.00;100959.69;5031792;28;20025;-71
2022/10/14 09:29:27;;;;;;;9.38;8.40;;;;;;;13.80;100.00;100949.41;5020874;28;20109;-71
2022/10/14 09:31:56;;;;;;;10.13;8.35;;;;;;;13.77;100.00;100947.19;5013063;28;20421;-71
2022/10/14 09:34:31;;;;;;;11.77;7.68;;;;;;;13.78;100.00;100949.66;5014022;28;20026;-72
2022/10/14 09:37:09;;;;;;;10.90;7.88;;;;;;;13.78;100.00;100949.66;5015960;28;20103;-72
2022/10/14 09:39:39;;;;;;;9.55;7.97;;;;;;;13.79;100.00;100948.56;5033574;28;20029;-73
2022/10/14 09:42:13;;;;;;;12.50;8.07;;;;;;;13.79;100.00;100950.47;5016704;28;20036;-70
2022/10/14 09:44:38;;;;;;;8.60;7.43;;;;;;;13.80;100.00;100943.97;5028940;28;20373;-72
2022/10/14 09:47:07;;;;;;;9.20;7.00;;;;;;;13.81;100.00;100948.31;5014113;28;20036;-70
2022/10/14 09:49:39;;;;;;;9.75;7.30;;;;;;;13.85;100.00;100945.97;5019228;28;20079;-72
2022/10/14 09:52:07;;;;;;;9.30;6.88;;;;;;;13.86;100.00;100947.59;5032535;28;20039;-70
2022/10/14 09:54:33;;;;;;;11.85;7.68;;;;;;;13.86;100.00;100950.31;5033350;28;20063;-70
2022/10/14 09:57:07;;;;;;;8.98;7.50;;;;;;;13.87;100.00;100941.91;5033232;28;20099;-70
2022/10/14 09:59:47;;;;;;;8.80;7.63;;;;;;;13.89;100.00;100944.38;5031875;28;20036;-73
2022/10/14 10:02:22;;;;;;;12.40;7.47;;;;;;;13.91;100.00;100937.63;5017331;28;20021;-70
2022/10/14 10:04:48;;;;;;;9.60;7.70;;;;;;;13.92;100.00;100936.56;5017780;28;20476;-71
2022/10/14 10:07:32;;;;;;;9.73;7.63;;;;;;;13.92;100.00;100936.56;5024923;28;20036;-71
2022/10/14 10:10:00;;;;;;;9.80;7.60;;;;;;;13.93;100.00;100937.38;5024236;28;20021;-70
2022/10/14 10:12:31;;;;;;;9.13;7.90;;;;;;;13.94;100.00;100931.69;5031826;28;20056;-70
2022/10/14 10:15:02;;;;;;;10.40;8.13;;;;;;;13.93;100.00;100935.47;5032037;28;20033;-70
2022/10/14 10:17:31;;;;;;;10.40;8.82;;;;;;;13.95;100.00;100935.22;5033061;28;20453;-71
2022/10/14 10:20:22;;;;;;;10.73;8.23;;;;;;;13.96;100.00;100929.53;5017430;28;20103;-70
2022/10/14 10:22:47;;;;;;;11.43;8.48;;;;;;;13.97;100.00;100924.94;5028309;28;20107;-71
2022/10/14 10:25:13;;;;;;;10.98;8.55;;;;;;;13.95;100.00;100919.75;5023397;28;20053;-70
2022/10/14 10:27:38;;;;;;;11.38;8.77;;;;;;;13.96;100.00;100915.94;5030868;28;20053;-71
2022/10/14 10:30:25;;;;;;;12.43;9.07;;;;;;;13.98;100.00;100913.81;5017525;28;20025;-71
2022/10/14 10:33:26;;;;;;;13.18;8.88;;;;;;;13.99;100.00;100917.34;5011743;28;20041;-71
2022/10/14 10:36:12;;;;;;;11.82;9.40;;;;;;;14.02;100.00;100914.13;5013391;28;20473;-70
2022/10/14 10:39:03;;;;;;;11.90;9.00;;;;;;;14.02;100.00;100905.97;5011328;28;20369;-71
2022/10/14 10:42:04;;;;;;;13.18;9.02;;;;;;;14.08;100.00;100898.72;5012840;28;20134;-70
2022/10/14 10:44:48;;;;;;;13.10;8.95;;;;;;;14.10;100.00;100908.31;5006560;28;20450;-72
2022/10/14 10:47:30;;;;;;;10.80;8.57;;;;;;;14.13;100.00;100907.81;5011747;28;20018;-73
2022/10/14 10:50:07;;;;;;;9.95;8.27;;;;;;;14.12;100.00;100902.63;5014629;28;20024;-71
2022/10/14 10:53:03;;;;;;;12.70;8.73;;;;;;;14.14;100.00;100903.19;5027718;28;20037;-71
2022/10/14 10:56:10;;;;;;;8.57;7.32;;;;;;;14.13;100.00;100901.53;5032216;28;20035;-72
2022/10/14 10:59:07;;;;;;;9.13;7.20;;;;;;;14.12;100.00;100900.72;5027408;28;20044;-70
2022/10/14 11:01:45;;;;;;;9.80;7.70;;;;;;;14.15;100.00;100900.22;5009964;28;20056;-71
2022/10/14 11:04:31;;;;;;;8.80;7.43;;;;;;;14.15;100.00;100893.94;5011908;28;20029;-71
2022/10/14 11:13:32;;;;;;;8.32;7.50;;;;;;;14.11;100.00;100881.91;5032104;28;20036;-71
2022/10/14 11:16:21;;;;;;;8.30;7.47;;;;;;;14.10;100.00;100880.25;5032067;28;20020;-71
2022/10/14 11:19:03;;;;;;;9.05;8.10;;;;;;;14.08;100.00;100883.22;5027693;28;20032;-71
2022/10/14 11:21:40;;;;;;;9.77;8.82;;;;;;;14.08;100.00;100879.69;5030901;28;20110;-71
2022/10/14 11:24:33;;;;;;;10.40;9.13;;;;;;;14.09;100.00;100875.91;5029970;28;20041;-71